Главная страница
METAR-TAF:

METAR-TAF

Аэропорты :

Тулча, Румыния

широта: 45-11N, долгота: 028-49E, высота над уровнем моря: 4 м

Текущие метеонаблюдения

Эта сводка был подготовлена 24 минут назад, в 22:30 UTC
Ветер 14 Узел от северный
Температура -2°C
Влажность 80%
Давление 1027 hPa
Видимость: 8000 м

METAR: LRTC 182230Z AUTO 01014KT 8000 OVC016/// M02/M05 Q1027

Время: 00:54 (22:54 UTC)

Прогноз

Эта сводка был подготовлена 8 часа и 54 минут назад, в 14:00 UTC
Прогноз действительный с 18-го 15 UTC до 18-го 24 UTC
Ветер 14 Узел от северный
Видимость 10 км и более
Рассеянная облачность на высоте 1000 фута
Рассеянная облачность на высоте 2000 фута
Вероятность 40% :
временами
С 18-го 18 UTC до 18-го 22 UTC
Видимость: 5000 м
небольшой снег

TAF: LRTC 181400Z 1815/1824 01014KT 9999 BKN010 BKN020 PROB40 TEMPO 1818/1822 5000 -SN

Метеонаблюдения и прогнозы для более 4000 аэропортов (сводки METAR и TAF).

Имеющиеся станции представлены на карте желтыми и красными точками.

Чтобы увидеть название станции, наведите на нее мышь.

Затем щелкните, чтобы увидеть метеонаблюдения и метеопрогнозы.

Управление картой: чтобы увеличить масштаб, щелкните зеленые кнопки с черным крестиком; чтобы уменьшить масштаб, щелкните зеленую кнопку с тире; для просмотра соседних карт щелкайте зеленые стрелки.


METAR-TAF: